Time;durP1;ratioP1;P1;durP2;ratioP2;P2;SDS_P1;SDS_P2;PMS_P1;PMS_P2;Temp;Humidity;BMP_temperature;BMP_pressure;BME280_temperature;BME280_humidity;BME280_pressure;Samples;Min_cycle;Max_cycle;Signal;HPM_P1;HPM_P2
2022/11/28 00:01:55;;;;;;;11.63;6.65;;;6.50;99.90;;;;;;5050514;28;20482;-67
2022/11/28 00:04:21;;;;;;;10.52;6.90;;;6.50;99.90;;;;;;5052098;28;20068;-68
2022/11/28 00:06:50;;;;;;;13.15;7.10;;;6.60;99.90;;;;;;5051566;28;20045;-67
2022/11/28 00:09:18;;;;;;;11.05;6.38;;;6.50;99.90;;;;;;5053841;28;20410;-68
2022/11/28 00:11:46;;;;;;;11.25;6.90;;;6.60;99.90;;;;;;5053282;28;20040;-67
2022/11/28 00:14:12;;;;;;;8.57;7.18;;;6.60;99.90;;;;;;5049941;28;20037;-68
2022/11/28 00:16:37;;;;;;;11.80;6.68;;;6.60;99.90;;;;;;5050655;28;20563;-67
2022/11/28 00:19:04;;;;;;;12.10;7.28;;;6.60;99.90;;;;;;5048983;28;20064;-68
2022/11/28 00:21:30;;;;;;;12.30;7.35;;;6.60;99.90;;;;;;5048842;28;20041;-68
2022/11/28 00:23:56;;;;;;;12.23;6.95;;;6.60;99.90;;;;;;5044218;28;20037;-68
2022/11/28 00:26:24;;;;;;;9.93;6.75;;;6.60;99.90;;;;;;5054012;28;20471;-68
2022/11/28 00:28:50;;;;;;;11.93;6.70;;;6.60;99.90;;;;;;5052595;28;20495;-68
2022/11/28 00:31:19;;;;;;;10.48;6.25;;;6.60;99.90;;;;;;5049826;28;20072;-68
2022/11/28 00:33:45;;;;;;;13.23;8.10;;;6.70;99.90;;;;;;5050946;28;20069;-68
2022/11/28 00:36:12;;;;;;;10.30;6.80;;;6.60;99.90;;;;;;5044959;28;20072;-68
2022/11/28 00:38:38;;;;;;;11.10;7.38;;;6.60;99.90;;;;;;5048741;28;20102;-68
2022/11/28 00:41:15;;;;;;;11.32;6.68;;;6.70;99.90;;;;;;5050533;28;20029;-68
2022/11/28 00:43:42;;;;;;;11.73;6.85;;;6.70;99.90;;;;;;5050219;28;20045;-68
2022/11/28 00:46:09;;;;;;;12.43;6.35;;;6.70;99.90;;;;;;5045525;28;20486;-68
2022/11/28 00:48:36;;;;;;;11.90;7.10;;;6.70;99.90;;;;;;5049276;28;20076;-68
2022/11/28 00:51:26;;;;;;;11.60;7.00;;;6.70;99.90;;;;;;5049053;28;20048;-68
2022/11/28 00:53:53;;;;;;;10.88;6.60;;;6.70;99.90;;;;;;5044193;28;20108;-68
2022/11/28 00:56:22;;;;;;;11.75;7.25;;;6.70;99.90;;;;;;5050941;28;20037;-68
2022/11/28 00:58:48;;;;;;;11.75;6.82;;;6.70;99.90;;;;;;5052465;28;20037;-68
2022/11/28 01:01:26;;;;;;;11.30;6.93;;;6.70;99.90;;;;;;5044240;28;20105;-68
2022/11/28 01:03:53;;;;;;;10.68;7.05;;;6.70;99.90;;;;;;5051960;28;20037;-68
2022/11/28 01:06:47;;;;;;;10.80;6.90;;;6.70;99.90;;;;;;5045309;28;20071;-68
2022/11/28 01:09:16;;;;;;;10.07;6.72;;;6.70;99.90;;;;;;5045884;28;20037;-68
2022/11/28 01:11:42;;;;;;;9.77;6.88;;;6.80;99.90;;;;;;5052118;28;20454;-68
2022/11/28 01:14:09;;;;;;;11.85;6.97;;;6.70;99.90;;;;;;5051044;28;20041;-68
2022/11/28 01:16:35;;;;;;;10.77;7.18;;;6.80;99.90;;;;;;5048402;28;20036;-68
2022/11/28 01:19:00;;;;;;;10.18;6.65;;;6.80;99.90;;;;;;5051442;28;20406;-68
2022/11/28 01:21:26;;;;;;;10.35;6.75;;;6.80;99.90;;;;;;5052711;28;20098;-68
2022/11/28 01:23:52;;;;;;;12.98;6.60;;;6.70;99.90;;;;;;5052633;28;20064;-68
2022/11/28 01:26:21;;;;;;;12.93;7.70;;;6.80;99.90;;;;;;5050553;28;20037;-68
2022/11/28 01:28:47;;;;;;;8.43;5.65;;;6.80;99.90;;;;;;5050875;28;20568;-68
2022/11/28 01:31:15;;;;;;;9.20;6.55;;;6.80;99.90;;;;;;5050929;28;20036;-68
2022/11/28 01:33:41;;;;;;;12.27;7.93;;;6.80;99.90;;;;;;5051433;28;20044;-68
2022/11/28 01:36:09;;;;;;;10.00;7.18;;;6.80;99.90;;;;;;5041847;28;20045;-68
2022/11/28 01:38:35;;;;;;;11.27;6.80;;;6.80;99.90;;;;;;5052047;28;20036;-68
2022/11/28 01:41:00;;;;;;;15.05;7.55;;;6.80;99.90;;;;;;5049189;28;20037;-68
2022/11/28 01:43:26;;;;;;;12.27;6.57;;;6.80;99.90;;;;;;5050413;28;20037;-68
2022/11/28 01:45:52;;;;;;;14.32;8.18;;;6.80;99.90;;;;;;5038543;28;20604;-68
2022/11/28 01:48:24;;;;;;;12.38;7.43;;;6.80;99.90;;;;;;5052066;28;20029;-68
2022/11/28 01:50:50;;;;;;;;;;;6.80;99.90;;;;;;5049832;28;20060;-68
2022/11/28 01:53:16;;;;;;;10.48;7.00;;;6.80;99.90;;;;;;5051193;28;20069;-68
2022/11/28 01:55:51;;;;;;;12.23;7.10;;;6.80;99.90;;;;;;5050644;28;20120;-68
2022/11/28 01:58:17;;;;;;;12.27;6.90;;;6.80;99.90;;;;;;5051643;28;20037;-68
2022/11/28 02:00:43;;;;;;;12.10;7.53;;;6.80;99.90;;;;;;5048922;28;20033;-68
2022/11/28 02:03:14;;;;;;;10.05;6.90;;;6.80;99.90;;;;;;5051335;28;20095;-68
2022/11/28 02:05:39;;;;;;;12.48;7.45;;;6.90;99.90;;;;;;5050208;28;20045;-68
2022/11/28 02:08:07;;;;;;;10.80;6.63;;;6.90;99.90;;;;;;5049965;28;20044;-68
2022/11/28 02:10:52;;;;;;;11.52;6.97;;;6.90;99.90;;;;;;5051315;28;20043;-69
2022/11/28 02:13:21;;;;;;;10.02;7.25;;;6.90;99.90;;;;;;5031169;28;20407;-68
2022/11/28 02:15:55;;;;;;;13.13;7.25;;;6.90;99.90;;;;;;5048709;28;20055;-68
2022/11/28 02:18:22;;;;;;;15.57;7.90;;;6.90;99.90;;;;;;5049970;28;20155;-68
2022/11/28 02:21:06;;;;;;;14.60;7.35;;;6.90;99.90;;;;;;5051253;28;20075;-68
2022/11/28 02:23:55;;;;;;;11.02;7.63;;;6.90;99.90;;;;;;5048492;28;20048;-68
2022/11/28 02:26:29;;;;;;;9.48;6.85;;;6.90;99.90;;;;;;5049915;28;20041;-68
2022/11/28 02:29:20;;;;;;;14.50;7.82;;;6.90;99.90;;;;;;5050021;28;20071;-68
2022/11/28 02:32:10;;;;;;;10.10;6.37;;;6.90;99.90;;;;;;5048135;28;20033;-68
2022/11/28 02:35:15;;;;;;;12.23;7.20;;;6.90;99.90;;;;;;5051189;28;20072;-68
2022/11/28 02:38:07;;;;;;;10.75;7.57;;;6.90;99.90;;;;;;5046153;28;20474;-68
2022/11/28 02:40:38;;;;;;;11.80;7.55;;;6.90;99.90;;;;;;5028528;28;20120;-68
2022/11/28 02:43:14;;;;;;;;;;;6.90;99.90;;;;;;5050523;28;20115;-68
2022/11/28 02:45:54;;;;;;;13.35;7.13;;;6.90;99.90;;;;;;5049568;28;20386;-68
2022/11/28 02:49:01;;;;;;;12.20;7.30;;;6.90;99.90;;;;;;5049643;28;20116;-68
2022/11/28 02:51:50;;;;;;;14.82;7.68;;;7.00;99.90;;;;;;5034438;28;20049;-68
2022/11/28 02:54:18;;;;;;;11.90;7.90;;;7.00;99.90;;;;;;5051206;28;20568;-68
2022/11/28 02:56:51;;;;;;;12.25;7.93;;;7.00;99.90;;;;;;5050144;28;20107;-68
2022/11/28 02:59:44;;;;;;;13.80;8.32;;;7.00;99.90;;;;;;5049607;28;20037;-68
2022/11/28 03:02:15;;;;;;;9.85;7.63;;;7.10;99.90;;;;;;5048555;28;20033;-68
2022/11/28 03:04:56;;;;;;;11.60;8.05;;;7.00;99.90;;;;;;5046493;28;20025;-68
2022/11/28 03:07:50;;;;;;;14.40;8.97;;;7.10;99.90;;;;;;5047000;28;20052;-68
2022/11/28 03:10:29;;;;;;;12.45;7.85;;;7.10;99.90;;;;;;5047483;28;20037;-68
2022/11/28 03:13:25;;;;;;;11.65;7.70;;;7.10;99.90;;;;;;5052584;28;20087;-68
2022/11/28 03:16:09;;;;;;;13.40;7.90;;;7.10;99.90;;;;;;5053704;28;20036;-68
2022/11/28 03:18:50;;;;;;;13.70;8.30;;;7.10;99.90;;;;;;5053521;28;20037;-68
2022/11/28 03:21:31;;;;;;;14.88;8.02;;;7.10;99.90;;;;;;5052746;28;20508;-68
2022/11/28 03:24:01;;;;;;;11.88;7.70;;;7.20;99.90;;;;;;5054486;28;20037;-68
2022/11/28 03:26:43;;;;;;;15.00;8.13;;;7.20;99.90;;;;;;5053495;28;20087;-69
2022/11/28 03:29:17;;;;;;;11.75;7.25;;;7.20;99.90;;;;;;5054120;28;20287;-68
2022/11/28 03:32:10;;;;;;;13.27;7.78;;;7.20;99.90;;;;;;5049333;28;20041;-68
2022/11/28 03:34:43;;;;;;;15.30;8.38;;;7.20;99.90;;;;;;5044763;28;20041;-68
2022/11/28 03:37:19;;;;;;;16.52;8.82;;;7.20;99.90;;;;;;5047852;28;20134;-68
2022/11/28 03:39:50;;;;;;;12.07;8.50;;;7.30;99.90;;;;;;5051881;28;20071;-68
2022/11/28 03:42:21;;;;;;;12.60;8.23;;;7.30;99.90;;;;;;5054663;28;20045;-68
2022/11/28 03:45:05;;;;;;;14.13;9.20;;;7.30;99.90;;;;;;5053908;28;20517;-68
2022/11/28 03:47:37;;;;;;;16.80;9.07;;;7.30;99.90;;;;;;5051621;28;20087;-68
2022/11/28 03:50:07;;;;;;;;;;;7.40;99.90;;;;;;5051721;28;20410;-68
2022/11/28 03:52:39;;;;;;;13.88;8.50;;;7.30;99.90;;;;;;5052825;28;20004;-68
2022/11/28 03:55:16;;;;;;;15.75;9.20;;;7.30;99.90;;;;;;5052419;28;20371;-68
2022/11/28 03:57:53;;;;;;;14.13;9.73;;;7.40;99.90;;;;;;5054124;28;20087;-68
2022/11/28 04:00:19;;;;;;;14.43;9.43;;;7.40;99.90;;;;;;5053712;28;20498;-68
2022/11/28 04:03:06;;;;;;;15.43;10.10;;;7.40;99.90;;;;;;5050657;28;20064;-68
2022/11/28 04:05:44;;;;;;;15.18;9.98;;;7.40;99.90;;;;;;5053182;28;20064;-68
2022/11/28 04:08:37;;;;;;;17.08;10.45;;;7.40;99.90;;;;;;5053862;28;20102;-68
2022/11/28 04:11:21;;;;;;;23.33;11.25;;;7.40;99.90;;;;;;5037911;28;20048;-68
2022/11/28 04:13:58;;;;;;;19.05;12.00;;;7.40;99.90;;;;;;5047246;28;20123;-67
2022/11/28 04:16:53;;;;;;;19.02;11.77;;;7.40;99.90;;;;;;5049296;28;20037;-68
2022/11/28 04:19:22;;;;;;;22.42;13.00;;;7.40;99.90;;;;;;5054945;22;20141;-63
2022/11/28 04:22:02;;;;;;;20.35;13.45;;;7.40;99.90;;;;;;5059179;28;20041;-63
2022/11/28 04:24:32;;;;;;;24.83;14.05;;;7.40;99.90;;;;;;5052619;28;20048;-64
2022/11/28 04:27:01;;;;;;;21.55;13.43;;;7.40;99.90;;;;;;5051600;28;20048;-63
2022/11/28 04:29:33;;;;;;;20.10;13.55;;;7.40;99.90;;;;;;5046880;28;20041;-64
2022/11/28 04:32:00;;;;;;;25.55;14.52;;;7.40;99.90;;;;;;5053225;28;20174;-63
2022/11/28 04:34:27;;;;;;;20.65;13.93;;;7.40;99.90;;;;;;5049858;28;20044;-63
2022/11/28 04:36:54;;;;;;;25.92;15.35;;;7.40;99.90;;;;;;5050997;28;20522;-63
2022/11/28 04:39:26;;;;;;;23.75;14.40;;;7.50;99.90;;;;;;5048239;28;20493;-63
2022/11/28 04:42:01;;;;;;;25.00;15.35;;;7.50;99.90;;;;;;5046238;28;20082;-63
2022/11/28 04:44:39;;;;;;;23.77;15.18;;;7.50;99.90;;;;;;5047164;28;20029;-63
2022/11/28 04:47:05;;;;;;;25.08;15.05;;;7.50;99.90;;;;;;5056579;28;20059;-63
2022/11/28 04:49:30;;;;;;;25.00;15.10;;;7.50;99.90;;;;;;5049788;28;20041;-63
2022/11/28 04:52:20;;;;;;;26.17;14.77;;;7.50;99.90;;;;;;5049065;28;20119;-63
2022/11/28 04:55:14;;;;;;;22.52;13.82;;;7.50;99.90;;;;;;5045980;28;20044;-64
2022/11/28 04:57:47;;;;;;;26.75;14.93;;;7.50;99.90;;;;;;5056139;28;20043;-63
2022/11/28 05:00:17;;;;;;;22.80;15.55;;;7.60;99.90;;;;;;5055014;28;20051;-64
2022/11/28 05:02:45;;;;;;;24.63;15.57;;;7.60;99.90;;;;;;5040607;28;20033;-63
2022/11/28 05:05:17;;;;;;;23.35;14.73;;;7.60;99.90;;;;;;5038437;28;20055;-63
2022/11/28 05:07:43;;;;;;;23.52;15.02;;;7.60;99.90;;;;;;5042398;28;20127;-64
2022/11/28 05:10:10;;;;;;;23.20;15.00;;;7.60;99.90;;;;;;5046598;28;20144;-64
2022/11/28 05:12:36;;;;;;;25.70;15.75;;;7.60;99.90;;;;;;5052514;28;20076;-63
2022/11/28 05:15:02;;;;;;;23.83;14.75;;;7.60;99.90;;;;;;5043283;28;20084;-63
2022/11/28 05:17:27;;;;;;;22.13;14.63;;;7.60;99.90;;;;;;5048670;28;20051;-63
2022/11/28 05:19:53;;;;;;;27.42;16.08;;;7.60;99.90;;;;;;5052944;28;20040;-63
2022/11/28 05:22:19;;;;;;;22.80;15.50;;;7.70;99.90;;;;;;5043903;28;20043;-63
2022/11/28 05:24:44;;;;;;;22.17;15.10;;;7.70;99.90;;;;;;5042055;28;20033;-63
2022/11/28 05:27:10;;;;;;;23.83;15.98;;;7.70;99.90;;;;;;5053833;28;20115;-63
2022/11/28 05:29:36;;;;;;;24.35;14.57;;;7.70;99.90;;;;;;5059112;28;20083;-62
2022/11/28 05:32:02;;;;;;;26.17;16.33;;;7.70;99.90;;;;;;5047789;28;20449;-63
2022/11/28 05:34:29;;;;;;;23.08;15.68;;;7.70;99.90;;;;;;5049679;28;20112;-63
2022/11/28 05:36:56;;;;;;;24.83;16.30;;;7.80;99.90;;;;;;5049592;28;20052;-64
2022/11/28 05:39:22;;;;;;;26.70;16.98;;;7.80;99.90;;;;;;5046885;28;20049;-64
2022/11/28 05:41:47;;;;;;;27.45;16.77;;;7.80;99.90;;;;;;5050304;28;20119;-63
2022/11/28 05:44:13;;;;;;;24.67;17.10;;;7.80;99.90;;;;;;5048562;28;20040;-63
2022/11/28 05:46:39;;;;;;;25.23;16.88;;;7.80;99.90;;;;;;5050438;28;20617;-63
2022/11/28 05:49:04;;;;;;;24.00;15.52;;;7.80;99.90;;;;;;5046756;28;20040;-63
2022/11/28 05:51:30;;;;;;;24.92;16.88;;;7.80;99.90;;;;;;5057514;28;20128;-64
2022/11/28 05:53:55;;;;;;;24.00;16.48;;;7.80;99.90;;;;;;5048993;28;20495;-63
2022/11/28 05:56:24;;;;;;;27.67;16.98;;;7.70;99.90;;;;;;5056233;28;20045;-63
2022/11/28 05:58:51;;;;;;;25.15;16.92;;;7.80;99.90;;;;;;5048709;28;20037;-63
2022/11/28 06:01:25;;;;;;;22.45;14.80;;;7.80;99.90;;;;;;5049682;28;20441;-63
2022/11/28 06:03:57;;;;;;;23.48;15.23;;;7.80;99.90;;;;;;5047942;28;20087;-63
2022/11/28 06:06:23;;;;;;;;;;;7.90;99.90;;;;;;5052667;28;20033;-64
2022/11/28 06:08:50;;;;;;;21.40;13.75;;;7.80;99.90;;;;;;5049832;28;19923;-63
2022/11/28 06:11:16;;;;;;;23.13;14.57;;;7.80;99.90;;;;;;5054461;28;20099;-62
2022/11/28 06:13:43;;;;;;;20.27;13.85;;;7.80;99.90;;;;;;5050211;28;20049;-63
2022/11/28 06:16:10;;;;;;;21.80;14.52;;;7.80;99.90;;;;;;5060531;28;20048;-63
2022/11/28 06:18:36;;;;;;;18.05;12.90;;;7.80;99.90;;;;;;5066955;28;20043;-63
2022/11/28 06:21:04;;;;;;;17.88;12.48;;;7.90;99.90;;;;;;5049678;28;20510;-63
2022/11/28 06:23:30;;;;;;;18.77;13.15;;;7.80;99.90;;;;;;5045887;28;20044;-63
2022/11/28 06:25:56;;;;;;;19.05;12.10;;;7.80;99.90;;;;;;5048713;28;20123;-63
2022/11/28 06:28:22;;;;;;;16.30;11.65;;;7.90;99.90;;;;;;5048684;28;20167;-63
2022/11/28 06:30:47;;;;;;;19.92;11.95;;;7.80;99.90;;;;;;5069438;28;20045;-63
2022/11/28 06:33:13;;;;;;;18.45;11.35;;;7.90;99.90;;;;;;5050837;28;20033;-63
2022/11/28 06:35:38;;;;;;;18.58;12.00;;;7.80;99.90;;;;;;5057435;28;20043;-63
2022/11/28 06:38:04;;;;;;;18.83;11.82;;;7.90;99.90;;;;;;5048812;28;20394;-64
2022/11/28 06:40:30;;;;;;;18.98;12.10;;;7.90;99.90;;;;;;5043975;28;20094;-63
2022/11/28 06:42:56;;;;;;;20.77;12.07;;;7.90;99.90;;;;;;5047214;28;20039;-64
2022/11/28 06:45:21;;;;;;;19.60;12.15;;;7.80;99.90;;;;;;5049362;28;20041;-63
2022/11/28 06:47:47;;;;;;;23.38;12.73;;;7.90;99.90;;;;;;5054361;28;20098;-63
2022/11/28 06:50:12;;;;;;;18.70;11.85;;;7.80;99.90;;;;;;5053025;28;20390;-63
2022/11/28 06:52:38;;;;;;;19.40;11.98;;;7.90;99.90;;;;;;5053410;28;20044;-63
2022/11/28 06:55:04;;;;;;;16.83;11.52;;;7.90;99.90;;;;;;5050893;28;20418;-64
2022/11/28 06:57:31;;;;;;;18.70;13.48;;;7.80;99.90;;;;;;5050497;28;20033;-63
2022/11/28 06:59:57;;;;;;;18.27;12.73;;;7.90;99.90;;;;;;5046585;28;20045;-64
2022/11/28 07:02:23;;;;;;;20.95;13.77;;;7.80;99.90;;;;;;5049891;28;20040;-63
2022/11/28 07:04:50;;;;;;;20.85;12.63;;;7.90;99.90;;;;;;5045784;28;20480;-64
2022/11/28 07:07:16;;;;;;;25.48;15.07;;;7.80;99.90;;;;;;5050294;28;20052;-63
2022/11/28 07:09:42;;;;;;;16.85;11.63;;;7.90;99.90;;;;;;5053542;28;20037;-63
2022/11/28 07:12:08;;;;;;;18.92;12.13;;;7.80;99.90;;;;;;5049918;28;20128;-64
2022/11/28 07:14:34;;;;;;;18.65;13.40;;;7.90;99.90;;;;;;5052239;28;20574;-63
2022/11/28 07:16:59;;;;;;;22.20;12.55;;;7.80;99.90;;;;;;5047022;28;20051;-63
2022/11/28 07:19:25;;;;;;;21.88;13.95;;;7.90;99.90;;;;;;5053122;28;20041;-63
2022/11/28 07:21:50;;;;;;;19.88;13.15;;;7.80;99.90;;;;;;5074024;28;20094;-63
2022/11/28 07:24:17;;;;;;;17.88;11.95;;;7.80;99.90;;;;;;5043494;28;20083;-64
2022/11/28 07:26:44;;;;;;;18.80;12.05;;;7.80;99.90;;;;;;5043031;28;20084;-63
2022/11/28 07:29:14;;;;;;;19.98;12.32;;;7.80;99.90;;;;;;5049650;28;20037;-64
2022/11/28 07:31:40;;;;;;;20.08;11.90;;;7.80;99.90;;;;;;5043261;28;20384;-64
2022/11/28 07:34:06;;;;;;;17.98;11.95;;;7.80;99.90;;;;;;5051517;28;20041;-64
2022/11/28 07:36:31;;;;;;;19.13;12.07;;;7.80;99.90;;;;;;5058477;28;20090;-63
2022/11/28 07:39:00;;;;;;;18.23;11.85;;;7.80;99.90;;;;;;5044847;28;20212;-63
2022/11/28 07:41:26;;;;;;;17.75;11.82;;;7.80;99.90;;;;;;5041198;28;20457;-62
2022/11/28 07:43:54;;;;;;;19.35;12.13;;;7.80;99.90;;;;;;5044199;28;20499;-64
2022/11/28 07:46:20;;;;;;;17.63;11.80;;;7.90;99.90;;;;;;5050082;28;20498;-63
2022/11/28 07:48:47;;;;;;;18.88;12.18;;;7.80;99.90;;;;;;5044366;28;20484;-64
2022/11/28 07:51:16;;;;;;;17.20;11.73;;;7.80;99.90;;;;;;5058231;28;20033;-64
2022/11/28 07:53:42;;;;;;;21.65;12.10;;;7.80;99.90;;;;;;5054277;28;20402;-64
2022/11/28 07:56:13;;;;;;;18.52;11.07;;;7.90;99.90;;;;;;5053234;28;20181;-63
2022/11/28 07:58:39;;;;;;;17.15;11.73;;;8.00;99.90;;;;;;5043968;28;20033;-63
2022/11/28 08:01:17;;;;;;;17.30;11.05;;;7.90;99.90;;;;;;5048019;28;20052;-63
2022/11/28 08:03:46;;;;;;;19.95;12.38;;;7.90;99.90;;;;;;5046454;28;20479;-64
2022/11/28 08:06:12;;;;;;;19.50;11.88;;;7.90;99.90;;;;;;5051645;28;20048;-63
2022/11/28 08:08:39;;;;;;;15.00;11.05;;;7.90;99.90;;;;;;5050977;28;20434;-64
2022/11/28 08:11:07;;;;;;;19.23;12.63;;;7.90;99.90;;;;;;5051417;28;20503;-63
2022/11/28 08:13:33;;;;;;;18.80;11.63;;;7.90;99.90;;;;;;5056116;28;20037;-64
2022/11/28 08:16:07;;;;;;;18.35;12.13;;;7.90;99.90;;;;;;5052751;28;20051;-63
2022/11/28 08:18:34;;;;;;;19.05;12.63;;;7.90;99.90;;;;;;5044722;28;20487;-63
2022/11/28 08:21:09;;;;;;;18.63;12.90;;;7.90;99.90;;;;;;5046736;28;20041;-66
2022/11/28 08:23:35;;;;;;;16.35;11.20;;;7.90;99.90;;;;;;5048457;28;20041;-67
2022/11/28 08:26:03;;;;;;;19.23;13.48;;;7.90;99.90;;;;;;5034498;28;20041;-66
2022/11/28 08:28:30;;;;;;;20.45;13.40;;;7.90;99.90;;;;;;5045216;28;20097;-66
2022/11/28 08:30:56;;;;;;;20.55;13.75;;;7.90;99.90;;;;;;5054294;28;20080;-66
2022/11/28 08:33:23;;;;;;;20.42;14.20;;;7.90;99.90;;;;;;5046278;28;20276;-67
2022/11/28 08:35:50;;;;;;;26.02;14.90;;;7.90;99.90;;;;;;5046502;28;20084;-67
2022/11/28 08:38:15;;;;;;;23.45;14.70;;;7.90;99.90;;;;;;5039976;28;20041;-67
2022/11/28 08:40:41;;;;;;;20.10;13.93;;;7.90;99.90;;;;;;5045193;28;20086;-67
2022/11/28 08:43:07;;;;;;;23.42;14.68;;;7.90;99.90;;;;;;5045305;28;20073;-67
2022/11/28 08:45:35;;;;;;;22.20;14.27;;;7.90;99.90;;;;;;5049272;28;20044;-67
2022/11/28 08:48:01;;;;;;;21.60;14.57;;;7.90;99.90;;;;;;5040843;28;20048;-67
2022/11/28 08:50:26;;;;;;;20.80;14.23;;;7.90;99.90;;;;;;5050506;28;20028;-67
2022/11/28 08:52:52;;;;;;;23.73;13.52;;;7.90;99.90;;;;;;5045682;28;20068;-67
2022/11/28 08:55:18;;;;;;;22.65;14.38;;;8.00;99.90;;;;;;5064421;28;20040;-64
2022/11/28 08:57:44;;;;;;;21.10;14.13;;;7.90;99.90;;;;;;5055030;28;20029;-67
2022/11/28 09:00:10;;;;;;;21.20;14.20;;;7.90;99.90;;;;;;5037301;28;20036;-67
2022/11/28 09:02:36;;;;;;;23.02;13.45;;;8.00;99.90;;;;;;5041982;28;20037;-67
2022/11/28 09:05:01;;;;;;;22.83;14.15;;;7.90;99.90;;;;;;5052695;28;20043;-67
2022/11/28 09:07:27;;;;;;;23.65;13.95;;;7.90;99.90;;;;;;5058879;28;20046;-67
2022/11/28 09:09:53;;;;;;;22.65;14.60;;;7.90;99.90;;;;;;5048746;28;20052;-67
2022/11/28 09:12:19;;;;;;;19.67;13.40;;;8.00;99.90;;;;;;5044482;28;20037;-67
2022/11/28 09:14:44;;;;;;;21.05;13.48;;;7.90;99.90;;;;;;5050537;28;20097;-67
2022/11/28 09:17:10;;;;;;;20.65;13.40;;;8.00;99.90;;;;;;5048675;28;20037;-67
2022/11/28 09:19:36;;;;;;;20.20;13.55;;;8.00;99.90;;;;;;5047860;28;20519;-67
2022/11/28 09:22:02;;;;;;;20.58;13.68;;;8.00;99.90;;;;;;5056428;28;20116;-67
2022/11/28 09:24:27;;;;;;;21.38;13.98;;;8.00;99.90;;;;;;5037550;28;20074;-67
2022/11/28 09:26:53;;;;;;;19.80;12.80;;;8.00;99.90;;;;;;5038623;28;20517;-67
2022/11/28 09:29:19;;;;;;;23.23;13.20;;;8.00;99.90;;;;;;5048030;28;20041;-67
2022/11/28 09:31:45;;;;;;;23.15;13.57;;;8.00;99.90;;;;;;5049185;28;20033;-68
2022/11/28 09:34:10;;;;;;;22.90;13.93;;;8.00;99.90;;;;;;5031589;28;20043;-67
2022/11/28 09:36:36;;;;;;;24.55;15.20;;;8.10;99.90;;;;;;5046718;28;20040;-67
2022/11/28 09:39:02;;;;;;;23.13;14.20;;;8.00;99.90;;;;;;5044686;28;20057;-67
2022/11/28 09:41:37;;;;;;;22.58;13.38;;;8.10;99.90;;;;;;5049672;28;20122;-67
2022/11/28 09:44:21;;;;;;;21.55;13.80;;;8.10;99.90;;;;;;5048907;28;20051;-67
2022/11/28 09:46:51;;;;;;;20.50;13.40;;;8.10;99.90;;;;;;5048096;28;20060;-68
2022/11/28 09:49:35;;;;;;;19.25;12.90;;;8.10;99.90;;;;;;5047169;28;20410;-67
2022/11/28 09:52:15;;;;;;;20.08;13.15;;;8.10;99.90;;;;;;5042780;28;20076;-67
2022/11/28 09:54:55;;;;;;;20.98;13.60;;;8.10;99.90;;;;;;5047923;28;20175;-67
2022/11/28 09:58:00;;;;;;;19.92;13.02;;;8.10;99.90;;;;;;5047368;28;20419;-68
2022/11/28 10:00:36;;;;;;;20.45;13.35;;;8.10;99.90;;;;;;5006691;28;20432;-67
2022/11/28 10:03:08;;;;;;;21.05;13.57;;;8.10;99.90;;;;;;5032089;28;20508;-67
2022/11/28 10:05:40;;;;;;;25.83;14.05;;;8.10;99.90;;;;;;5047017;28;20041;-67
2022/11/28 10:08:21;;;;;;;19.73;13.38;;;8.10;99.90;;;;;;5051004;28;20048;-67
2022/11/28 10:10:57;;;;;;;16.52;11.55;;;8.10;99.90;;;;;;5044764;28;20072;-67
2022/11/28 10:13:26;;;;;;;18.45;13.35;;;8.10;99.90;;;;;;5040154;28;20087;-67
2022/11/28 10:15:54;;;;;;;19.27;13.00;;;8.10;99.90;;;;;;5044421;28;20040;-67
2022/11/28 10:18:34;;;;;;;20.48;12.65;;;8.10;99.90;;;;;;5064504;28;20040;-66
2022/11/28 10:21:35;;;;;;;17.38;11.45;;;8.20;99.90;;;;;;5053759;28;20047;-65
2022/11/28 10:24:13;;;;;;;18.45;12.02;;;8.20;99.90;;;;;;5037513;28;20163;-66
2022/11/28 10:26:47;;;;;;;18.55;12.23;;;8.20;99.90;;;;;;5046412;28;20087;-66
2022/11/28 10:29:31;;;;;;;17.90;11.63;;;8.20;99.90;;;;;;5044856;28;20522;-66
2022/11/28 10:32:02;;;;;;;16.98;11.73;;;8.20;99.90;;;;;;5043227;28;20040;-66
2022/11/28 10:34:57;;;;;;;17.75;11.93;;;8.20;99.90;;;;;;5047815;28;20053;-66
2022/11/28 10:37:30;;;;;;;17.95;11.80;;;8.20;99.90;;;;;;5011942;28;20049;-66
2022/11/28 10:40:11;;;;;;;15.90;11.70;;;8.20;99.90;;;;;;5047760;28;20461;-66
2022/11/28 10:42:51;;;;;;;17.05;11.63;;;8.30;99.90;;;;;;5057600;28;20518;-66
2022/11/28 10:45:22;;;;;;;19.70;12.35;;;8.20;99.90;;;;;;5048734;28;20065;-66
2022/11/28 10:48:02;;;;;;;15.55;11.32;;;8.30;99.90;;;;;;5044794;28;20080;-66
2022/11/28 10:50:47;;;;;;;14.15;11.55;;;8.30;99.90;;;;;;5048473;28;20052;-66
2022/11/28 10:53:25;;;;;;;15.55;10.70;;;8.30;99.90;;;;;;5048423;28;20242;-67
2022/11/28 10:56:26;;;;;;;15.48;11.05;;;8.30;99.90;;;;;;5042416;28;20029;-66
2022/11/28 10:58:57;;;;;;;;;;;8.30;99.90;;;;;;5042317;28;20068;-66
2022/11/28 11:01:29;;;;;;;14.43;10.50;;;8.30;99.90;;;;;;5033043;28;19921;-66
2022/11/28 11:03:55;;;;;;;16.05;10.68;;;8.30;99.90;;;;;;5040813;28;20120;-66
2022/11/28 11:06:24;;;;;;;14.00;10.48;;;8.30;99.90;;;;;;5044634;28;20144;-66
2022/11/28 11:08:50;;;;;;;15.65;11.10;;;8.30;99.90;;;;;;5047392;28;20048;-66
2022/11/28 11:11:29;;;;;;;16.52;10.95;;;8.30;99.90;;;;;;5043895;28;20049;-66
2022/11/28 11:14:00;;;;;;;14.75;10.93;;;8.40;99.90;;;;;;5040977;28;20415;-66
2022/11/28 11:16:55;;;;;;;17.38;10.70;;;8.40;99.90;;;;;;5048012;28;20095;-66
2022/11/28 11:19:36;;;;;;;14.40;10.15;;;8.40;99.90;;;;;;5041787;28;20132;-66
2022/11/28 11:22:08;;;;;;;16.63;10.85;;;8.40;99.90;;;;;;5050036;28;20047;-66
2022/11/28 11:24:33;;;;;;;15.20;10.57;;;8.40;99.90;;;;;;5046465;28;20056;-65
2022/11/28 11:27:25;;;;;;;14.75;9.82;;;8.40;99.90;;;;;;5043646;28;20034;-66
2022/11/28 11:29:52;;;;;;;14.60;9.88;;;8.40;99.90;;;;;;5048516;28;20040;-66
2022/11/28 11:32:29;;;;;;;12.85;9.60;;;8.40;99.90;;;;;;5054772;28;20065;-66
2022/11/28 11:34:58;;;;;;;14.40;10.88;;;8.40;99.90;;;;;;5050969;28;20047;-66
2022/11/28 11:37:37;;;;;;;15.20;10.65;;;8.40;99.90;;;;;;5051061;28;20091;-66
2022/11/28 11:40:21;;;;;;;14.90;9.80;;;8.30;99.90;;;;;;5042833;28;20036;-66
2022/11/28 11:42:58;;;;;;;17.13;10.23;;;8.40;99.90;;;;;;5047664;28;20565;-66
2022/11/28 11:45:27;;;;;;;13.45;9.32;;;8.40;99.90;;;;;;5074546;28;20040;-67
2022/11/28 11:47:52;;;;;;;14.35;10.55;;;8.40;99.90;;;;;;5041538;28;20045;-66
2022/11/28 11:50:21;;;;;;;13.43;9.88;;;8.40;99.90;;;;;;5051190;28;20037;-66
2022/11/28 11:53:11;;;;;;;13.65;9.88;;;8.40;99.90;;;;;;5049723;28;20051;-66
2022/11/28 11:55:50;;;;;;;12.52;9.38;;;8.40;99.90;;;;;;5042107;28;20081;-65
2022/11/28 11:58:24;;;;;;;15.20;10.02;;;8.40;99.90;;;;;;5052229;28;20045;-66
2022/11/28 12:00:53;;;;;;;14.52;10.30;;;8.40;99.90;;;;;;5059311;28;20059;-66
2022/11/28 12:03:47;;;;;;;14.25;10.20;;;8.40;99.90;;;;;;5047660;28;20037;-66
2022/11/28 12:06:19;;;;;;;14.23;9.77;;;8.40;99.90;;;;;;5046118;28;20120;-66
2022/11/28 12:08:52;;;;;;;12.65;9.63;;;8.40;99.90;;;;;;5053323;28;20128;-66
2022/11/28 12:11:35;;;;;;;13.05;9.40;;;8.40;99.90;;;;;;5038729;28;20084;-66
2022/11/28 12:14:22;;;;;;;14.95;10.57;;;8.40;99.90;;;;;;5050976;28;20049;-67
2022/11/28 12:16:55;;;;;;;15.85;10.30;;;8.40;99.90;;;;;;5051247;28;20569;-67
2022/11/28 12:19:32;;;;;;;13.30;9.27;;;8.40;99.90;;;;;;5057564;28;20041;-66
2022/11/28 12:22:49;;;;;;;14.10;9.63;;;8.40;99.90;;;;;;5050448;28;20049;-66
2022/11/28 12:25:47;;;;;;;13.02;9.07;;;8.40;99.90;;;;;;4991137;28;20071;-67
2022/11/28 12:28:28;;;;;;;12.95;8.68;;;8.40;99.90;;;;;;5047907;28;20041;-66
2022/11/28 12:31:07;;;;;;;14.05;9.68;;;8.40;99.90;;;;;;5047215;28;20135;-66
2022/11/28 12:33:47;;;;;;;14.63;9.73;;;8.40;99.90;;;;;;5050678;28;20050;-66
2022/11/28 12:36:27;;;;;;;15.13;9.60;;;8.40;99.90;;;;;;5050017;28;20407;-66
2022/11/28 12:38:59;;;;;;;14.07;9.05;;;8.40;99.90;;;;;;5046523;28;20041;-67
2022/11/28 12:42:04;;;;;;;12.80;9.13;;;8.40;99.90;;;;;;5052810;28;20056;-68
2022/11/28 12:44:53;;;;;;;12.70;9.25;;;8.50;99.90;;;;;;5050150;28;20044;-66
2022/11/28 12:47:37;;;;;;;12.95;9.45;;;8.40;99.90;;;;;;5051041;28;20045;-66
2022/11/28 12:50:44;;;;;;;12.50;8.65;;;8.40;99.90;;;;;;5051787;28;20525;-66
2022/11/28 12:53:15;;;;;;;13.18;8.93;;;8.50;99.90;;;;;;5024234;28;20099;-66
2022/11/28 12:56:18;;;;;;;12.45;8.63;;;8.40;99.90;;;;;;5044044;28;20453;-66
2022/11/28 12:59:24;;;;;;;11.80;8.27;;;8.50;99.90;;;;;;5048165;28;20084;-67
2022/11/28 13:01:56;;;;;;;10.93;8.25;;;8.50;99.90;;;;;;5036383;28;20068;-67
2022/11/28 13:04:40;;;;;;;14.77;9.43;;;8.50;99.90;;;;;;5047145;28;20402;-67
2022/11/28 13:07:44;;;;;;;12.57;8.75;;;8.50;99.90;;;;;;5047360;28;20156;-67
2022/11/28 13:10:30;;;;;;;12.35;8.98;;;8.50;99.90;;;;;;5041285;28;20143;-68
2022/11/28 13:13:40;;;;;;;13.93;9.05;;;8.50;99.90;;;;;;5055012;28;20091;-67